sensor_id;sensor_type;location;lat;lon;timestamp;P1;durP1;ratioP1;P2;durP2;ratioP2
54157;SDS011;40065;49.894;10.358;2024-02-14T00:04:10;4.85;;;1.70;;
54157;SDS011;40065;49.894;10.358;2024-02-14T00:09:14;3.42;;;1.58;;
54157;SDS011;40065;49.894;10.358;2024-02-14T00:14:17;3.33;;;1.00;;
54157;SDS011;40065;49.894;10.358;2024-02-14T00:19:21;3.67;;;1.42;;
54157;SDS011;40065;49.894;10.358;2024-02-14T00:24:23;3.03;;;1.35;;
54157;SDS011;40065;49.894;10.358;2024-02-14T00:29:28;4.13;;;1.83;;
54157;SDS011;40065;49.894;10.358;2024-02-14T00:34:29;3.08;;;1.20;;
54157;SDS011;40065;49.894;10.358;2024-02-14T00:39:31;2.53;;;1.38;;
54157;SDS011;40065;49.894;10.358;2024-02-14T00:44:33;3.25;;;1.40;;
54157;SDS011;40065;49.894;10.358;2024-02-14T00:49:35;5.88;;;1.60;;
54157;SDS011;40065;49.894;10.358;2024-02-14T00:54:37;3.50;;;1.48;;
54157;SDS011;40065;49.894;10.358;2024-02-14T00:59:39;3.38;;;1.58;;
54157;SDS011;40065;49.894;10.358;2024-02-14T01:04:41;3.55;;;1.77;;
54157;SDS011;40065;49.894;10.358;2024-02-14T01:09:43;4.13;;;1.73;;
54157;SDS011;40065;49.894;10.358;2024-02-14T01:14:45;5.55;;;1.50;;
54157;SDS011;40065;49.894;10.358;2024-02-14T01:19:47;2.83;;;1.40;;
54157;SDS011;40065;49.894;10.358;2024-02-14T01:24:48;4.93;;;1.55;;
54157;SDS011;40065;49.894;10.358;2024-02-14T01:29:50;4.43;;;1.70;;
54157;SDS011;40065;49.894;10.358;2024-02-14T01:34:52;3.80;;;1.42;;
54157;SDS011;40065;49.894;10.358;2024-02-14T01:39:54;4.70;;;1.70;;
54157;SDS011;40065;49.894;10.358;2024-02-14T01:44:56;4.20;;;1.60;;
54157;SDS011;40065;49.894;10.358;2024-02-14T01:49:58;5.75;;;1.80;;
54157;SDS011;40065;49.894;10.358;2024-02-14T01:55:02;3.97;;;1.63;;
54157;SDS011;40065;49.894;10.358;2024-02-14T02:00:06;5.95;;;2.08;;
54157;SDS011;40065;49.894;10.358;2024-02-14T02:05:19;4.82;;;1.98;;
54157;SDS011;40065;49.894;10.358;2024-02-14T02:10:21;4.63;;;1.83;;
54157;SDS011;40065;49.894;10.358;2024-02-14T02:15:23;4.70;;;1.88;;
54157;SDS011;40065;49.894;10.358;2024-02-14T02:20:25;4.55;;;1.80;;
54157;SDS011;40065;49.894;10.358;2024-02-14T02:25:29;3.80;;;1.60;;
54157;SDS011;40065;49.894;10.358;2024-02-14T02:30:31;4.32;;;1.58;;
54157;SDS011;40065;49.894;10.358;2024-02-14T02:35:33;2.85;;;1.65;;
54157;SDS011;40065;49.894;10.358;2024-02-14T02:40:35;3.60;;;1.63;;
54157;SDS011;40065;49.894;10.358;2024-02-14T02:45:38;6.13;;;1.88;;
54157;SDS011;40065;49.894;10.358;2024-02-14T02:50:40;2.88;;;1.58;;
54157;SDS011;40065;49.894;10.358;2024-02-14T02:55:42;2.88;;;1.88;;
54157;SDS011;40065;49.894;10.358;2024-02-14T03:00:44;4.78;;;2.15;;
54157;SDS011;40065;49.894;10.358;2024-02-14T03:05:47;2.80;;;1.85;;
54157;SDS011;40065;49.894;10.358;2024-02-14T03:10:48;3.50;;;2.10;;
54157;SDS011;40065;49.894;10.358;2024-02-14T03:15:50;5.32;;;1.90;;
54157;SDS011;40065;49.894;10.358;2024-02-14T03:20:52;5.13;;;2.30;;
54157;SDS011;40065;49.894;10.358;2024-02-14T03:25:57;4.47;;;2.20;;
54157;SDS011;40065;49.894;10.358;2024-02-14T03:30:59;3.22;;;1.80;;
54157;SDS011;40065;49.894;10.358;2024-02-14T03:36:01;3.95;;;2.33;;
54157;SDS011;40065;49.894;10.358;2024-02-14T03:41:04;4.45;;;1.80;;
54157;SDS011;40065;49.894;10.358;2024-02-14T03:46:06;4.47;;;1.90;;
54157;SDS011;40065;49.894;10.358;2024-02-14T03:51:08;3.78;;;1.80;;
54157;SDS011;40065;49.894;10.358;2024-02-14T03:56:10;3.15;;;1.90;;
54157;SDS011;40065;49.894;10.358;2024-02-14T04:01:14;3.80;;;1.55;;
54157;SDS011;40065;49.894;10.358;2024-02-14T04:06:17;4.18;;;1.60;;
54157;SDS011;40065;49.894;10.358;2024-02-14T04:11:19;3.42;;;1.60;;
54157;SDS011;40065;49.894;10.358;2024-02-14T04:16:21;5.97;;;1.80;;
54157;SDS011;40065;49.894;10.358;2024-02-14T04:21:23;3.55;;;1.75;;
54157;SDS011;40065;49.894;10.358;2024-02-14T04:26:25;8.20;;;1.88;;
54157;SDS011;40065;49.894;10.358;2024-02-14T04:31:28;3.65;;;1.73;;
54157;SDS011;40065;49.894;10.358;2024-02-14T04:36:33;7.93;;;2.00;;
54157;SDS011;40065;49.894;10.358;2024-02-14T04:41:36;3.42;;;1.50;;
54157;SDS011;40065;49.894;10.358;2024-02-14T04:46:57;6.88;;;2.28;;
54157;SDS011;40065;49.894;10.358;2024-02-14T04:52:02;4.13;;;1.60;;
54157;SDS011;40065;49.894;10.358;2024-02-14T04:57:04;4.03;;;1.77;;
54157;SDS011;40065;49.894;10.358;2024-02-14T05:02:06;3.28;;;1.25;;
54157;SDS011;40065;49.894;10.358;2024-02-14T05:07:08;4.35;;;1.55;;
54157;SDS011;40065;49.894;10.358;2024-02-14T05:12:10;7.68;;;1.63;;
54157;SDS011;40065;49.894;10.358;2024-02-14T05:17:12;3.88;;;1.70;;
54157;SDS011;40065;49.894;10.358;2024-02-14T05:22:14;2.97;;;1.55;;
54157;SDS011;40065;49.894;10.358;2024-02-14T05:27:16;4.20;;;1.60;;
54157;SDS011;40065;49.894;10.358;2024-02-14T05:32:18;5.53;;;1.55;;
54157;SDS011;40065;49.894;10.358;2024-02-14T05:37:19;4.13;;;1.75;;
54157;SDS011;40065;49.894;10.358;2024-02-14T05:42:21;4.13;;;2.05;;
54157;SDS011;40065;49.894;10.358;2024-02-14T05:47:24;3.80;;;1.52;;
54157;SDS011;40065;49.894;10.358;2024-02-14T05:52:26;5.20;;;1.50;;
54157;SDS011;40065;49.894;10.358;2024-02-14T05:57:28;4.55;;;1.70;;
54157;SDS011;40065;49.894;10.358;2024-02-14T06:02:30;5.80;;;1.70;;
54157;SDS011;40065;49.894;10.358;2024-02-14T06:07:32;5.55;;;1.90;;
54157;SDS011;40065;49.894;10.358;2024-02-14T06:12:34;3.75;;;1.90;;
54157;SDS011;40065;49.894;10.358;2024-02-14T06:17:36;4.68;;;1.67;;
54157;SDS011;40065;49.894;10.358;2024-02-14T06:22:38;5.70;;;1.75;;
54157;SDS011;40065;49.894;10.358;2024-02-14T06:27:50;4.13;;;1.70;;
54157;SDS011;40065;49.894;10.358;2024-02-14T06:32:52;4.00;;;1.40;;
54157;SDS011;40065;49.894;10.358;2024-02-14T06:37:54;4.63;;;1.48;;
54157;SDS011;40065;49.894;10.358;2024-02-14T06:43:05;4.28;;;1.45;;
54157;SDS011;40065;49.894;10.358;2024-02-14T06:48:08;5.22;;;1.52;;
54157;SDS011;40065;49.894;10.358;2024-02-14T06:53:11;3.47;;;1.50;;
54157;SDS011;40065;49.894;10.358;2024-02-14T06:58:13;3.40;;;1.40;;
54157;SDS011;40065;49.894;10.358;2024-02-14T07:03:15;3.45;;;1.42;;
54157;SDS011;40065;49.894;10.358;2024-02-14T07:08:17;5.43;;;1.80;;
54157;SDS011;40065;49.894;10.358;2024-02-14T07:13:19;5.00;;;1.67;;
54157;SDS011;40065;49.894;10.358;2024-02-14T07:18:21;5.38;;;1.70;;
54157;SDS011;40065;49.894;10.358;2024-02-14T07:23:23;4.22;;;1.65;;
54157;SDS011;40065;49.894;10.358;2024-02-14T07:28:25;4.85;;;1.55;;
54157;SDS011;40065;49.894;10.358;2024-02-14T07:33:27;3.10;;;1.30;;
54157;SDS011;40065;49.894;10.358;2024-02-14T07:38:29;4.68;;;1.45;;
54157;SDS011;40065;49.894;10.358;2024-02-14T07:43:34;3.92;;;1.60;;
54157;SDS011;40065;49.894;10.358;2024-02-14T07:48:35;4.28;;;1.67;;
54157;SDS011;40065;49.894;10.358;2024-02-14T07:53:37;6.55;;;2.10;;
54157;SDS011;40065;49.894;10.358;2024-02-14T07:58:39;4.72;;;1.70;;
54157;SDS011;40065;49.894;10.358;2024-02-14T08:03:41;7.30;;;1.77;;
54157;SDS011;40065;49.894;10.358;2024-02-14T08:08:43;6.22;;;1.90;;
54157;SDS011;40065;49.894;10.358;2024-02-14T08:18:49;8.18;;;2.78;;
54157;SDS011;40065;49.894;10.358;2024-02-14T08:23:52;6.30;;;2.22;;
54157;SDS011;40065;49.894;10.358;2024-02-14T08:28:56;4.43;;;1.75;;
54157;SDS011;40065;49.894;10.358;2024-02-14T08:33:59;6.65;;;1.70;;
54157;SDS011;40065;49.894;10.358;2024-02-14T08:39:01;5.38;;;1.60;;
54157;SDS011;40065;49.894;10.358;2024-02-14T08:44:03;3.15;;;1.48;;
54157;SDS011;40065;49.894;10.358;2024-02-14T08:49:06;6.55;;;1.38;;
54157;SDS011;40065;49.894;10.358;2024-02-14T08:54:12;6.57;;;1.73;;
54157;SDS011;40065;49.894;10.358;2024-02-14T08:59:15;3.15;;;1.90;;
54157;SDS011;40065;49.894;10.358;2024-02-14T09:04:17;4.55;;;1.83;;
54157;SDS011;40065;49.894;10.358;2024-02-14T09:09:18;5.88;;;1.70;;
54157;SDS011;40065;49.894;10.358;2024-02-14T09:14:20;4.95;;;2.13;;
54157;SDS011;40065;49.894;10.358;2024-02-14T09:19:23;7.32;;;1.90;;
54157;SDS011;40065;49.894;10.358;2024-02-14T09:24:26;4.47;;;1.52;;
54157;SDS011;40065;49.894;10.358;2024-02-14T09:29:28;3.50;;;1.50;;
54157;SDS011;40065;49.894;10.358;2024-02-14T09:34:30;4.18;;;1.40;;
54157;SDS011;40065;49.894;10.358;2024-02-14T09:39:32;4.68;;;1.38;;
54157;SDS011;40065;49.894;10.358;2024-02-14T09:44:38;4.53;;;1.40;;
54157;SDS011;40065;49.894;10.358;2024-02-14T09:49:42;2.85;;;1.40;;
54157;SDS011;40065;49.894;10.358;2024-02-14T09:54:44;4.43;;;1.88;;
54157;SDS011;40065;49.894;10.358;2024-02-14T09:59:46;4.30;;;1.63;;
54157;SDS011;40065;49.894;10.358;2024-02-14T10:04:49;5.25;;;1.70;;
54157;SDS011;40065;49.894;10.358;2024-02-14T10:09:51;3.67;;;1.35;;
54157;SDS011;40065;49.894;10.358;2024-02-14T10:14:53;4.05;;;1.38;;
54157;SDS011;40065;49.894;10.358;2024-02-14T10:20:01;5.90;;;1.60;;
54157;SDS011;40065;49.894;10.358;2024-02-14T10:25:08;5.90;;;1.80;;
54157;SDS011;40065;49.894;10.358;2024-02-14T10:30:10;6.72;;;1.70;;
54157;SDS011;40065;49.894;10.358;2024-02-14T10:35:12;7.22;;;2.00;;
54157;SDS011;40065;49.894;10.358;2024-02-14T10:40:15;4.43;;;1.50;;
54157;SDS011;40065;49.894;10.358;2024-02-14T10:45:17;2.78;;;1.70;;
54157;SDS011;40065;49.894;10.358;2024-02-14T10:50:21;5.43;;;1.85;;
54157;SDS011;40065;49.894;10.358;2024-02-14T11:00:28;4.88;;;1.75;;
54157;SDS011;40065;49.894;10.358;2024-02-14T11:05:43;4.47;;;1.50;;
54157;SDS011;40065;49.894;10.358;2024-02-14T11:10:56;4.50;;;1.80;;
54157;SDS011;40065;49.894;10.358;2024-02-14T11:16:00;3.75;;;1.35;;
54157;SDS011;40065;49.894;10.358;2024-02-14T11:21:03;6.43;;;1.70;;
54157;SDS011;40065;49.894;10.358;2024-02-14T11:26:06;3.38;;;1.52;;
54157;SDS011;40065;49.894;10.358;2024-02-14T11:31:10;6.30;;;1.70;;
54157;SDS011;40065;49.894;10.358;2024-02-14T11:36:12;3.88;;;1.77;;
54157;SDS011;40065;49.894;10.358;2024-02-14T11:41:17;4.05;;;1.90;;
54157;SDS011;40065;49.894;10.358;2024-02-14T11:46:19;4.80;;;1.63;;
54157;SDS011;40065;49.894;10.358;2024-02-14T11:51:21;4.60;;;1.70;;
54157;SDS011;40065;49.894;10.358;2024-02-14T11:56:23;8.05;;;1.75;;
54157;SDS011;40065;49.894;10.358;2024-02-14T12:01:27;4.25;;;1.63;;
54157;SDS011;40065;49.894;10.358;2024-02-14T12:06:31;4.47;;;2.17;;
54157;SDS011;40065;49.894;10.358;2024-02-14T12:11:36;3.90;;;1.55;;
54157;SDS011;40065;49.894;10.358;2024-02-14T12:16:39;4.68;;;1.77;;
54157;SDS011;40065;49.894;10.358;2024-02-14T12:21:42;5.97;;;2.60;;
54157;SDS011;40065;49.894;10.358;2024-02-14T12:26:50;5.60;;;2.65;;
54157;SDS011;40065;49.894;10.358;2024-02-14T12:32:02;5.05;;;1.88;;
54157;SDS011;40065;49.894;10.358;2024-02-14T12:42:11;4.88;;;2.10;;
54157;SDS011;40065;49.894;10.358;2024-02-14T12:47:13;5.75;;;2.50;;
54157;SDS011;40065;49.894;10.358;2024-02-14T12:52:15;5.13;;;2.58;;
54157;SDS011;40065;49.894;10.358;2024-02-14T12:57:17;4.63;;;2.08;;
54157;SDS011;40065;49.894;10.358;2024-02-14T13:02:20;16.92;;;5.72;;
54157;SDS011;40065;49.894;10.358;2024-02-14T13:07:22;7.13;;;2.20;;
54157;SDS011;40065;49.894;10.358;2024-02-14T13:12:24;4.45;;;1.92;;
54157;SDS011;40065;49.894;10.358;2024-02-14T13:17:26;6.35;;;2.65;;
54157;SDS011;40065;49.894;10.358;2024-02-14T13:22:28;10.18;;;2.80;;
54157;SDS011;40065;49.894;10.358;2024-02-14T13:27:30;9.98;;;4.63;;
54157;SDS011;40065;49.894;10.358;2024-02-14T13:32:32;7.40;;;2.10;;
54157;SDS011;40065;49.894;10.358;2024-02-14T13:37:34;8.23;;;3.83;;
54157;SDS011;40065;49.894;10.358;2024-02-14T13:42:37;7.05;;;3.38;;
54157;SDS011;40065;49.894;10.358;2024-02-14T13:47:39;4.15;;;2.50;;
54157;SDS011;40065;49.894;10.358;2024-02-14T13:52:42;4.80;;;2.60;;
54157;SDS011;40065;49.894;10.358;2024-02-14T13:57:43;3.72;;;2.42;;
54157;SDS011;40065;49.894;10.358;2024-02-14T14:02:45;5.97;;;2.42;;
54157;SDS011;40065;49.894;10.358;2024-02-14T14:07:47;5.50;;;2.10;;
54157;SDS011;40065;49.894;10.358;2024-02-14T14:12:59;6.80;;;2.10;;
54157;SDS011;40065;49.894;10.358;2024-02-14T14:18:01;5.20;;;2.10;;
54157;SDS011;40065;49.894;10.358;2024-02-14T14:23:03;6.75;;;2.33;;
54157;SDS011;40065;49.894;10.358;2024-02-14T14:28:07;3.80;;;2.07;;
54157;SDS011;40065;49.894;10.358;2024-02-14T14:33:11;3.88;;;1.90;;
54157;SDS011;40065;49.894;10.358;2024-02-14T14:38:17;3.80;;;1.70;;
54157;SDS011;40065;49.894;10.358;2024-02-14T14:43:19;9.00;;;2.83;;
54157;SDS011;40065;49.894;10.358;2024-02-14T14:48:22;4.70;;;2.43;;
54157;SDS011;40065;49.894;10.358;2024-02-14T14:53:24;6.13;;;2.85;;
54157;SDS011;40065;49.894;10.358;2024-02-14T14:58:27;6.50;;;2.90;;
54157;SDS011;40065;49.894;10.358;2024-02-14T15:03:29;5.72;;;2.70;;
54157;SDS011;40065;49.894;10.358;2024-02-14T15:08:31;4.88;;;2.58;;
54157;SDS011;40065;49.894;10.358;2024-02-14T15:13:34;10.73;;;5.32;;
54157;SDS011;40065;49.894;10.358;2024-02-14T15:18:36;3.67;;;1.58;;
54157;SDS011;40065;49.894;10.358;2024-02-14T15:23:38;2.53;;;1.60;;
54157;SDS011;40065;49.894;10.358;2024-02-14T15:28:40;5.78;;;2.83;;
54157;SDS011;40065;49.894;10.358;2024-02-14T15:33:43;6.57;;;2.67;;
54157;SDS011;40065;49.894;10.358;2024-02-14T15:38:45;12.40;;;3.90;;
54157;SDS011;40065;49.894;10.358;2024-02-14T15:43:55;4.93;;;2.38;;
54157;SDS011;40065;49.894;10.358;2024-02-14T15:48:57;3.72;;;1.90;;
54157;SDS011;40065;49.894;10.358;2024-02-14T15:53:59;43.65;;;24.58;;
54157;SDS011;40065;49.894;10.358;2024-02-14T15:59:00;16.02;;;9.15;;
54157;SDS011;40065;49.894;10.358;2024-02-14T16:04:04;4.60;;;2.70;;
54157;SDS011;40065;49.894;10.358;2024-02-14T16:09:07;3.70;;;2.78;;
54157;SDS011;40065;49.894;10.358;2024-02-14T16:14:09;6.25;;;3.47;;
54157;SDS011;40065;49.894;10.358;2024-02-14T16:19:11;5.22;;;3.22;;
54157;SDS011;40065;49.894;10.358;2024-02-14T16:24:13;5.57;;;3.15;;
54157;SDS011;40065;49.894;10.358;2024-02-14T16:29:15;9.57;;;4.90;;
54157;SDS011;40065;49.894;10.358;2024-02-14T16:34:17;7.72;;;4.35;;
54157;SDS011;40065;49.894;10.358;2024-02-14T16:39:20;9.15;;;3.60;;
54157;SDS011;40065;49.894;10.358;2024-02-14T16:44:44;7.47;;;4.20;;
54157;SDS011;40065;49.894;10.358;2024-02-14T16:49:47;9.38;;;4.63;;
54157;SDS011;40065;49.894;10.358;2024-02-14T16:54:49;11.15;;;5.85;;
54157;SDS011;40065;49.894;10.358;2024-02-14T16:59:51;11.27;;;6.00;;
54157;SDS011;40065;49.894;10.358;2024-02-14T17:04:53;14.75;;;7.32;;
54157;SDS011;40065;49.894;10.358;2024-02-14T17:09:55;6.65;;;3.30;;
54157;SDS011;40065;49.894;10.358;2024-02-14T17:14:59;3.97;;;2.70;;
54157;SDS011;40065;49.894;10.358;2024-02-14T17:20:01;6.45;;;2.90;;
54157;SDS011;40065;49.894;10.358;2024-02-14T17:25:04;7.80;;;2.97;;
54157;SDS011;40065;49.894;10.358;2024-02-14T17:30:09;3.60;;;2.50;;
54157;SDS011;40065;49.894;10.358;2024-02-14T17:35:11;4.53;;;3.05;;
54157;SDS011;40065;49.894;10.358;2024-02-14T17:40:13;5.30;;;2.78;;
54157;SDS011;40065;49.894;10.358;2024-02-14T17:45:15;4.35;;;2.95;;
54157;SDS011;40065;49.894;10.358;2024-02-14T17:50:19;4.80;;;2.70;;
54157;SDS011;40065;49.894;10.358;2024-02-14T17:55:23;5.85;;;3.20;;
54157;SDS011;40065;49.894;10.358;2024-02-14T18:00:24;7.22;;;3.28;;
54157;SDS011;40065;49.894;10.358;2024-02-14T18:05:27;6.43;;;3.25;;
54157;SDS011;40065;49.894;10.358;2024-02-14T18:10:29;4.28;;;3.00;;
54157;SDS011;40065;49.894;10.358;2024-02-14T18:15:33;8.15;;;2.95;;
54157;SDS011;40065;49.894;10.358;2024-02-14T18:20:34;6.40;;;3.10;;
54157;SDS011;40065;49.894;10.358;2024-02-14T18:25:37;7.43;;;3.65;;
54157;SDS011;40065;49.894;10.358;2024-02-14T18:30:38;6.13;;;3.30;;
54157;SDS011;40065;49.894;10.358;2024-02-14T18:35:40;5.72;;;3.30;;
54157;SDS011;40065;49.894;10.358;2024-02-14T18:40:42;7.82;;;3.65;;
54157;SDS011;40065;49.894;10.358;2024-02-14T18:45:44;8.05;;;3.72;;
54157;SDS011;40065;49.894;10.358;2024-02-14T18:50:46;8.27;;;4.10;;
54157;SDS011;40065;49.894;10.358;2024-02-14T18:55:48;6.93;;;3.30;;
54157;SDS011;40065;49.894;10.358;2024-02-14T19:00:50;6.22;;;3.97;;
54157;SDS011;40065;49.894;10.358;2024-02-14T19:05:52;6.65;;;4.35;;
54157;SDS011;40065;49.894;10.358;2024-02-14T19:10:55;11.75;;;6.03;;
54157;SDS011;40065;49.894;10.358;2024-02-14T19:15:57;9.57;;;5.90;;
54157;SDS011;40065;49.894;10.358;2024-02-14T19:21:12;9.20;;;6.07;;
54157;SDS011;40065;49.894;10.358;2024-02-14T19:26:14;12.40;;;6.63;;
54157;SDS011;40065;49.894;10.358;2024-02-14T19:31:16;12.27;;;7.07;;
54157;SDS011;40065;49.894;10.358;2024-02-14T19:36:18;12.25;;;7.60;;
54157;SDS011;40065;49.894;10.358;2024-02-14T19:41:20;17.85;;;9.43;;
54157;SDS011;40065;49.894;10.358;2024-02-14T19:46:22;18.08;;;10.45;;
54157;SDS011;40065;49.894;10.358;2024-02-14T19:51:25;17.25;;;9.75;;
54157;SDS011;40065;49.894;10.358;2024-02-14T19:56:28;20.02;;;10.48;;
54157;SDS011;40065;49.894;10.358;2024-02-14T20:01:31;16.50;;;10.82;;
54157;SDS011;40065;49.894;10.358;2024-02-14T20:06:33;18.92;;;11.65;;
54157;SDS011;40065;49.894;10.358;2024-02-14T20:11:34;21.95;;;12.15;;
54157;SDS011;40065;49.894;10.358;2024-02-14T20:16:36;22.45;;;13.02;;
54157;SDS011;40065;49.894;10.358;2024-02-14T20:21:38;18.85;;;11.82;;
54157;SDS011;40065;49.894;10.358;2024-02-14T20:26:40;20.23;;;11.68;;
54157;SDS011;40065;49.894;10.358;2024-02-14T20:31:44;22.03;;;11.63;;
54157;SDS011;40065;49.894;10.358;2024-02-14T20:36:45;19.92;;;11.07;;
54157;SDS011;40065;49.894;10.358;2024-02-14T20:41:47;21.58;;;11.57;;
54157;SDS011;40065;49.894;10.358;2024-02-14T20:46:50;21.08;;;11.73;;
54157;SDS011;40065;49.894;10.358;2024-02-14T20:51:54;18.47;;;10.90;;
54157;SDS011;40065;49.894;10.358;2024-02-14T20:56:55;16.67;;;10.60;;
54157;SDS011;40065;49.894;10.358;2024-02-14T21:01:57;15.50;;;10.23;;
54157;SDS011;40065;49.894;10.358;2024-02-14T21:06:59;21.00;;;11.15;;
54157;SDS011;40065;49.894;10.358;2024-02-14T21:12:02;16.15;;;9.68;;
54157;SDS011;40065;49.894;10.358;2024-02-14T21:17:05;16.25;;;9.77;;
54157;SDS011;40065;49.894;10.358;2024-02-14T21:22:06;15.40;;;9.63;;
54157;SDS011;40065;49.894;10.358;2024-02-14T21:27:08;13.75;;;9.35;;
54157;SDS011;40065;49.894;10.358;2024-02-14T21:32:11;20.90;;;9.50;;
54157;SDS011;40065;49.894;10.358;2024-02-14T21:37:14;15.93;;;8.93;;
54157;SDS011;40065;49.894;10.358;2024-02-14T21:42:17;12.82;;;8.27;;
54157;SDS011;40065;49.894;10.358;2024-02-14T21:47:19;15.00;;;8.48;;
54157;SDS011;40065;49.894;10.358;2024-02-14T21:52:21;11.45;;;8.27;;
54157;SDS011;40065;49.894;10.358;2024-02-14T21:57:23;15.32;;;9.15;;
54157;SDS011;40065;49.894;10.358;2024-02-14T22:02:27;14.70;;;7.90;;
54157;SDS011;40065;49.894;10.358;2024-02-14T22:07:28;14.15;;;8.60;;
54157;SDS011;40065;49.894;10.358;2024-02-14T22:12:30;13.85;;;8.27;;
54157;SDS011;40065;49.894;10.358;2024-02-14T22:17:33;15.65;;;8.68;;
54157;SDS011;40065;49.894;10.358;2024-02-14T22:22:35;14.30;;;8.23;;
54157;SDS011;40065;49.894;10.358;2024-02-14T22:27:37;17.27;;;9.10;;
54157;SDS011;40065;49.894;10.358;2024-02-14T22:32:38;14.65;;;7.80;;
54157;SDS011;40065;49.894;10.358;2024-02-14T22:37:40;12.27;;;6.80;;
54157;SDS011;40065;49.894;10.358;2024-02-14T22:42:42;12.00;;;7.18;;
54157;SDS011;40065;49.894;10.358;2024-02-14T22:47:44;16.38;;;9.05;;
54157;SDS011;40065;49.894;10.358;2024-02-14T22:52:46;14.60;;;8.38;;
54157;SDS011;40065;49.894;10.358;2024-02-14T22:57:48;13.95;;;7.68;;
54157;SDS011;40065;49.894;10.358;2024-02-14T23:02:50;11.40;;;6.45;;
54157;SDS011;40065;49.894;10.358;2024-02-14T23:07:53;11.70;;;6.18;;
54157;SDS011;40065;49.894;10.358;2024-02-14T23:12:57;13.68;;;7.07;;
54157;SDS011;40065;49.894;10.358;2024-02-14T23:17:59;13.40;;;7.03;;
54157;SDS011;40065;49.894;10.358;2024-02-14T23:23:02;13.25;;;6.32;;
54157;SDS011;40065;49.894;10.358;2024-02-14T23:28:04;9.32;;;5.88;;
54157;SDS011;40065;49.894;10.358;2024-02-14T23:33:06;9.27;;;6.57;;
54157;SDS011;40065;49.894;10.358;2024-02-14T23:38:13;12.95;;;6.90;;
54157;SDS011;40065;49.894;10.358;2024-02-14T23:43:15;10.10;;;7.20;;
54157;SDS011;40065;49.894;10.358;2024-02-14T23:48:17;10.82;;;6.60;;
54157;SDS011;40065;49.894;10.358;2024-02-14T23:53:19;11.80;;;7.47;;
54157;SDS011;40065;49.894;10.358;2024-02-14T23:58:21;15.25;;;8.00;;
